sensor_id;sensor_type;location;lat;lon;timestamp;temperature;humidity
33271;DHT22;53180;51.344;6.152;2022-07-17T00:02:15;15.00;68.70
33271;DHT22;53180;51.344;6.152;2022-07-17T00:04:43;15.00;68.70
33271;DHT22;53180;51.344;6.152;2022-07-17T00:07:12;14.80;69.80
33271;DHT22;53180;51.344;6.152;2022-07-17T00:09:40;14.60;70.20
33271;DHT22;53180;51.344;6.152;2022-07-17T00:12:09;14.60;70.60
33271;DHT22;53180;51.344;6.152;2022-07-17T00:14:37;14.60;71.00
33271;DHT22;53180;51.344;6.152;2022-07-17T00:17:06;14.60;71.00
33271;DHT22;53180;51.344;6.152;2022-07-17T00:19:35;14.50;71.20
33271;DHT22;53180;51.344;6.152;2022-07-17T00:22:04;14.50;71.40
33271;DHT22;53180;51.344;6.152;2022-07-17T00:24:32;14.40;71.90
33271;DHT22;53180;51.344;6.152;2022-07-17T00:27:00;14.40;72.50
33271;DHT22;53180;51.344;6.152;2022-07-17T00:29:29;14.30;72.20
33271;DHT22;53180;51.344;6.152;2022-07-17T00:31:57;14.30;72.40
33271;DHT22;53180;51.344;6.152;2022-07-17T00:34:25;14.20;72.40
33271;DHT22;53180;51.344;6.152;2022-07-17T00:36:55;14.10;72.70
33271;DHT22;53180;51.344;6.152;2022-07-17T00:39:23;13.90;73.50
33271;DHT22;53180;51.344;6.152;2022-07-17T00:41:52;13.80;73.80
33271;DHT22;53180;51.344;6.152;2022-07-17T00:44:20;13.80;74.10
33271;DHT22;53180;51.344;6.152;2022-07-17T00:46:48;13.80;74.60
33271;DHT22;53180;51.344;6.152;2022-07-17T00:49:17;13.80;75.20
33271;DHT22;53180;51.344;6.152;2022-07-17T00:51:45;13.70;75.00
33271;DHT22;53180;51.344;6.152;2022-07-17T00:54:16;13.50;75.80
33271;DHT22;53180;51.344;6.152;2022-07-17T00:56:46;13.50;76.30
33271;DHT22;53180;51.344;6.152;2022-07-17T00:59:16;13.50;76.90
33271;DHT22;53180;51.344;6.152;2022-07-17T01:01:46;13.40;76.80
33271;DHT22;53180;51.344;6.152;2022-07-17T01:04:15;13.40;76.60
33271;DHT22;53180;51.344;6.152;2022-07-17T01:06:43;13.40;76.90
33271;DHT22;53180;51.344;6.152;2022-07-17T01:09:12;13.40;76.80
33271;DHT22;53180;51.344;6.152;2022-07-17T01:11:43;13.30;77.10
33271;DHT22;53180;51.344;6.152;2022-07-17T01:14:11;13.30;76.70
33271;DHT22;53180;51.344;6.152;2022-07-17T01:16:40;13.30;76.50
33271;DHT22;53180;51.344;6.152;2022-07-17T01:19:10;13.30;76.00
33271;DHT22;53180;51.344;6.152;2022-07-17T01:21:42;13.20;76.60
33271;DHT22;53180;51.344;6.152;2022-07-17T01:24:12;13.10;76.50
33271;DHT22;53180;51.344;6.152;2022-07-17T01:26:41;12.90;76.80
33271;DHT22;53180;51.344;6.152;2022-07-17T01:29:11;12.90;76.70
33271;DHT22;53180;51.344;6.152;2022-07-17T01:31:40;12.80;77.20
33271;DHT22;53180;51.344;6.152;2022-07-17T01:34:10;12.80;78.00
33271;DHT22;53180;51.344;6.152;2022-07-17T01:36:42;12.80;78.10
33271;DHT22;53180;51.344;6.152;2022-07-17T01:39:10;12.80;78.50
33271;DHT22;53180;51.344;6.152;2022-07-17T01:41:38;12.80;77.80
33271;DHT22;53180;51.344;6.152;2022-07-17T01:44:07;12.70;77.20
33271;DHT22;53180;51.344;6.152;2022-07-17T01:46:37;12.50;77.50
33271;DHT22;53180;51.344;6.152;2022-07-17T01:49:05;12.50;78.70
33271;DHT22;53180;51.344;6.152;2022-07-17T01:51:33;12.40;78.80
33271;DHT22;53180;51.344;6.152;2022-07-17T01:54:04;12.40;78.80
33271;DHT22;53180;51.344;6.152;2022-07-17T01:56:32;12.40;79.00
33271;DHT22;53180;51.344;6.152;2022-07-17T01:59:00;12.30;79.20
33271;DHT22;53180;51.344;6.152;2022-07-17T02:01:28;12.30;79.40
33271;DHT22;53180;51.344;6.152;2022-07-17T02:03:58;12.30;79.20
33271;DHT22;53180;51.344;6.152;2022-07-17T02:06:26;12.30;79.50
33271;DHT22;53180;51.344;6.152;2022-07-17T02:08:54;12.30;79.20
33271;DHT22;53180;51.344;6.152;2022-07-17T02:11:24;12.30;78.80
33271;DHT22;53180;51.344;6.152;2022-07-17T02:13:53;12.30;78.80
33271;DHT22;53180;51.344;6.152;2022-07-17T02:16:21;12.40;78.80
33271;DHT22;53180;51.344;6.152;2022-07-17T02:18:50;12.30;79.00
33271;DHT22;53180;51.344;6.152;2022-07-17T02:21:18;12.30;78.10
33271;DHT22;53180;51.344;6.152;2022-07-17T02:23:46;12.20;78.20
33271;DHT22;53180;51.344;6.152;2022-07-17T02:26:15;12.20;78.40
33271;DHT22;53180;51.344;6.152;2022-07-17T02:28:44;12.20;78.50
33271;DHT22;53180;51.344;6.152;2022-07-17T02:31:13;12.20;79.30
33271;DHT22;53180;51.344;6.152;2022-07-17T02:33:41;12.20;79.20
33271;DHT22;53180;51.344;6.152;2022-07-17T02:36:10;12.10;79.20
33271;DHT22;53180;51.344;6.152;2022-07-17T02:38:38;12.10;79.00
33271;DHT22;53180;51.344;6.152;2022-07-17T02:41:07;12.10;79.30
33271;DHT22;53180;51.344;6.152;2022-07-17T02:43:36;12.00;78.90
33271;DHT22;53180;51.344;6.152;2022-07-17T02:46:06;12.00;78.70
33271;DHT22;53180;51.344;6.152;2022-07-17T02:48:34;11.80;78.30
33271;DHT22;53180;51.344;6.152;2022-07-17T02:51:03;11.60;78.50
33271;DHT22;53180;51.344;6.152;2022-07-17T02:53:31;11.40;78.40
33271;DHT22;53180;51.344;6.152;2022-07-17T02:55:59;11.30;78.90
33271;DHT22;53180;51.344;6.152;2022-07-17T02:58:28;11.30;79.80
33271;DHT22;53180;51.344;6.152;2022-07-17T03:00:56;11.30;80.50
33271;DHT22;53180;51.344;6.152;2022-07-17T03:03:26;11.30;80.50
33271;DHT22;53180;51.344;6.152;2022-07-17T03:05:54;11.20;81.30
33271;DHT22;53180;51.344;6.152;2022-07-17T03:08:23;11.20;81.50
33271;DHT22;53180;51.344;6.152;2022-07-17T03:10:51;11.20;81.60
33271;DHT22;53180;51.344;6.152;2022-07-17T03:13:19;11.30;81.30
33271;DHT22;53180;51.344;6.152;2022-07-17T03:15:48;11.30;81.80
33271;DHT22;53180;51.344;6.152;2022-07-17T03:18:16;11.30;81.60
33271;DHT22;53180;51.344;6.152;2022-07-17T03:20:46;11.40;81.10
33271;DHT22;53180;51.344;6.152;2022-07-17T03:23:14;11.50;81.50
33271;DHT22;53180;51.344;6.152;2022-07-17T03:25:43;11.40;81.10
33271;DHT22;53180;51.344;6.152;2022-07-17T03:28:12;11.20;80.20
33271;DHT22;53180;51.344;6.152;2022-07-17T03:30:40;11.10;80.70
33271;DHT22;53180;51.344;6.152;2022-07-17T03:33:08;11.00;80.60
33271;DHT22;53180;51.344;6.152;2022-07-17T03:35:37;11.20;81.40
33271;DHT22;53180;51.344;6.152;2022-07-17T03:38:06;11.20;81.20
33271;DHT22;53180;51.344;6.152;2022-07-17T03:40:35;11.20;81.50
33271;DHT22;53180;51.344;6.152;2022-07-17T03:43:04;11.00;81.70
33271;DHT22;53180;51.344;6.152;2022-07-17T03:45:32;11.00;82.40
33271;DHT22;53180;51.344;6.152;2022-07-17T03:48:01;11.00;81.90
33271;DHT22;53180;51.344;6.152;2022-07-17T03:50:29;11.00;82.20
33271;DHT22;53180;51.344;6.152;2022-07-17T03:52:57;11.00;81.70
33271;DHT22;53180;51.344;6.152;2022-07-17T03:55:27;11.00;81.90
33271;DHT22;53180;51.344;6.152;2022-07-17T03:57:56;10.90;82.00
33271;DHT22;53180;51.344;6.152;2022-07-17T04:00:24;10.80;82.40
33271;DHT22;53180;51.344;6.152;2022-07-17T04:02:52;10.80;82.70
33271;DHT22;53180;51.344;6.152;2022-07-17T04:05:21;10.90;82.70
33271;DHT22;53180;51.344;6.152;2022-07-17T04:07:49;10.80;82.80
33271;DHT22;53180;51.344;6.152;2022-07-17T04:10:17;10.80;83.50
33271;DHT22;53180;51.344;6.152;2022-07-17T04:12:47;10.80;83.60
33271;DHT22;53180;51.344;6.152;2022-07-17T04:15:15;10.90;83.70
33271;DHT22;53180;51.344;6.152;2022-07-17T04:18:04;11.00;83.50
33271;DHT22;53180;51.344;6.152;2022-07-17T04:20:32;10.90;83.40
33271;DHT22;53180;51.344;6.152;2022-07-17T04:23:00;10.90;84.40
33271;DHT22;53180;51.344;6.152;2022-07-17T04:25:29;11.00;84.00
33271;DHT22;53180;51.344;6.152;2022-07-17T04:27:59;11.10;83.80
33271;DHT22;53180;51.344;6.152;2022-07-17T04:30:27;11.10;84.20
33271;DHT22;53180;51.344;6.152;2022-07-17T04:32:56;11.20;85.00
33271;DHT22;53180;51.344;6.152;2022-07-17T04:35:24;11.20;85.00
33271;DHT22;53180;51.344;6.152;2022-07-17T04:37:53;11.30;84.70
33271;DHT22;53180;51.344;6.152;2022-07-17T04:40:21;11.40;84.70
33271;DHT22;53180;51.344;6.152;2022-07-17T04:42:50;11.50;85.20
33271;DHT22;53180;51.344;6.152;2022-07-17T04:45:19;11.70;85.20
33271;DHT22;53180;51.344;6.152;2022-07-17T04:47:48;12.00;85.10
33271;DHT22;53180;51.344;6.152;2022-07-17T04:50:16;12.20;84.60
33271;DHT22;53180;51.344;6.152;2022-07-17T04:52:44;12.50;83.90
33271;DHT22;53180;51.344;6.152;2022-07-17T04:55:13;12.90;82.60
33271;DHT22;53180;51.344;6.152;2022-07-17T04:57:41;13.20;82.20
33271;DHT22;53180;51.344;6.152;2022-07-17T05:00:11;13.40;81.70
33271;DHT22;53180;51.344;6.152;2022-07-17T05:02:43;13.70;81.20
33271;DHT22;53180;51.344;6.152;2022-07-17T05:05:11;13.80;80.90
33271;DHT22;53180;51.344;6.152;2022-07-17T05:07:40;14.10;79.20
33271;DHT22;53180;51.344;6.152;2022-07-17T05:10:09;14.20;78.60
33271;DHT22;53180;51.344;6.152;2022-07-17T05:12:37;14.20;78.30
33271;DHT22;53180;51.344;6.152;2022-07-17T05:15:06;14.40;78.40
33271;DHT22;53180;51.344;6.152;2022-07-17T05:17:35;14.80;77.50
33271;DHT22;53180;51.344;6.152;2022-07-17T05:20:06;15.10;76.30
33271;DHT22;53180;51.344;6.152;2022-07-17T05:22:35;15.20;75.10
33271;DHT22;53180;51.344;6.152;2022-07-17T05:25:05;15.20;75.40
33271;DHT22;53180;51.344;6.152;2022-07-17T05:27:34;15.40;74.70
33271;DHT22;53180;51.344;6.152;2022-07-17T05:30:03;15.60;74.80
33271;DHT22;53180;51.344;6.152;2022-07-17T05:32:32;15.50;74.80
33271;DHT22;53180;51.344;6.152;2022-07-17T05:35:00;15.40;74.70
33271;DHT22;53180;51.344;6.152;2022-07-17T05:37:30;15.30;74.50
33271;DHT22;53180;51.344;6.152;2022-07-17T05:39:58;15.30;75.00
33271;DHT22;53180;51.344;6.152;2022-07-17T05:42:26;15.30;74.40
33271;DHT22;53180;51.344;6.152;2022-07-17T05:45:01;15.40;74.40
33271;DHT22;53180;51.344;6.152;2022-07-17T05:47:30;15.50;73.40
33271;DHT22;53180;51.344;6.152;2022-07-17T05:49:58;15.40;72.00
33271;DHT22;53180;51.344;6.152;2022-07-17T05:52:26;15.50;72.70
33271;DHT22;53180;51.344;6.152;2022-07-17T05:54:56;15.50;72.40
33271;DHT22;53180;51.344;6.152;2022-07-17T05:57:24;15.60;72.00
33271;DHT22;53180;51.344;6.152;2022-07-17T05:59:53;15.70;72.20
33271;DHT22;53180;51.344;6.152;2022-07-17T06:02:21;15.70;71.40
33271;DHT22;53180;51.344;6.152;2022-07-17T06:04:49;15.80;71.20
33271;DHT22;53180;51.344;6.152;2022-07-17T06:07:17;15.90;71.30
33271;DHT22;53180;51.344;6.152;2022-07-17T06:09:46;16.00;71.20
33271;DHT22;53180;51.344;6.152;2022-07-17T06:12:15;16.10;71.30
33271;DHT22;53180;51.344;6.152;2022-07-17T06:14:44;16.20;70.30
33271;DHT22;53180;51.344;6.152;2022-07-17T06:17:12;16.30;69.70
33271;DHT22;53180;51.344;6.152;2022-07-17T06:19:40;16.30;70.10
33271;DHT22;53180;51.344;6.152;2022-07-17T06:22:08;16.30;70.50
33271;DHT22;53180;51.344;6.152;2022-07-17T06:24:37;16.30;69.80
33271;DHT22;53180;51.344;6.152;2022-07-17T06:27:05;16.30;70.10
33271;DHT22;53180;51.344;6.152;2022-07-17T06:29:35;16.30;70.10
33271;DHT22;53180;51.344;6.152;2022-07-17T06:32:06;16.40;70.20
33271;DHT22;53180;51.344;6.152;2022-07-17T06:34:35;16.50;69.90
33271;DHT22;53180;51.344;6.152;2022-07-17T06:37:03;16.60;69.10
33271;DHT22;53180;51.344;6.152;2022-07-17T06:39:32;16.70;68.80
33271;DHT22;53180;51.344;6.152;2022-07-17T06:42:00;16.70;69.00
33271;DHT22;53180;51.344;6.152;2022-07-17T06:44:29;16.80;68.90
33271;DHT22;53180;51.344;6.152;2022-07-17T06:46:58;16.90;68.20
33271;DHT22;53180;51.344;6.152;2022-07-17T06:49:27;17.00;68.70
33271;DHT22;53180;51.344;6.152;2022-07-17T06:51:55;17.10;67.70
33271;DHT22;53180;51.344;6.152;2022-07-17T06:54:23;17.20;67.80
33271;DHT22;53180;51.344;6.152;2022-07-17T06:56:53;17.30;67.80
33271;DHT22;53180;51.344;6.152;2022-07-17T06:59:21;17.40;67.20
33271;DHT22;53180;51.344;6.152;2022-07-17T07:01:50;17.50;66.00
33271;DHT22;53180;51.344;6.152;2022-07-17T07:04:19;17.50;65.60
33271;DHT22;53180;51.344;6.152;2022-07-17T07:06:48;17.60;65.70
33271;DHT22;53180;51.344;6.152;2022-07-17T07:09:16;17.60;66.10
33271;DHT22;53180;51.344;6.152;2022-07-17T07:11:44;17.80;64.50
33271;DHT22;53180;51.344;6.152;2022-07-17T07:14:13;17.90;65.50
33271;DHT22;53180;51.344;6.152;2022-07-17T07:16:41;18.10;64.90
33271;DHT22;53180;51.344;6.152;2022-07-17T07:19:09;18.10;63.70
33271;DHT22;53180;51.344;6.152;2022-07-17T07:21:39;18.20;62.70
33271;DHT22;53180;51.344;6.152;2022-07-17T07:24:08;18.30;62.80
33271;DHT22;53180;51.344;6.152;2022-07-17T07:26:36;18.50;63.70
33271;DHT22;53180;51.344;6.152;2022-07-17T07:29:05;18.60;62.50
33271;DHT22;53180;51.344;6.152;2022-07-17T07:31:39;18.70;62.80
33271;DHT22;53180;51.344;6.152;2022-07-17T07:34:07;18.90;62.40
33271;DHT22;53180;51.344;6.152;2022-07-17T07:36:35;19.00;61.30
33271;DHT22;53180;51.344;6.152;2022-07-17T07:39:05;19.20;59.80
33271;DHT22;53180;51.344;6.152;2022-07-17T07:41:33;19.20;59.90
33271;DHT22;53180;51.344;6.152;2022-07-17T07:44:03;19.30;60.20
33271;DHT22;53180;51.344;6.152;2022-07-17T07:46:31;19.50;59.60
33271;DHT22;53180;51.344;6.152;2022-07-17T07:49:00;19.70;58.90
33271;DHT22;53180;51.344;6.152;2022-07-17T07:51:29;19.80;57.10
33271;DHT22;53180;51.344;6.152;2022-07-17T07:54:19;19.90;56.90
33271;DHT22;53180;51.344;6.152;2022-07-17T07:56:47;19.90;58.20
33271;DHT22;53180;51.344;6.152;2022-07-17T07:59:16;20.10;57.30
33271;DHT22;53180;51.344;6.152;2022-07-17T08:01:44;20.20;57.10
33271;DHT22;53180;51.344;6.152;2022-07-17T08:04:13;20.50;56.10
33271;DHT22;53180;51.344;6.152;2022-07-17T08:06:41;20.60;56.70
33271;DHT22;53180;51.344;6.152;2022-07-17T08:09:10;20.70;56.70
33271;DHT22;53180;51.344;6.152;2022-07-17T08:11:40;20.80;56.40
33271;DHT22;53180;51.344;6.152;2022-07-17T08:14:08;20.90;54.50
33271;DHT22;53180;51.344;6.152;2022-07-17T08:16:43;20.90;54.70
33271;DHT22;53180;51.344;6.152;2022-07-17T08:19:11;21.10;54.90
33271;DHT22;53180;51.344;6.152;2022-07-17T08:21:39;21.20;55.10
33271;DHT22;53180;51.344;6.152;2022-07-17T08:24:08;21.30;53.30
33271;DHT22;53180;51.344;6.152;2022-07-17T08:26:36;21.30;52.50
33271;DHT22;53180;51.344;6.152;2022-07-17T08:29:06;21.20;52.30
33271;DHT22;53180;51.344;6.152;2022-07-17T08:31:34;21.10;51.40
33271;DHT22;53180;51.344;6.152;2022-07-17T08:34:03;21.30;52.20
33271;DHT22;53180;51.344;6.152;2022-07-17T08:36:31;21.40;51.30
33271;DHT22;53180;51.344;6.152;2022-07-17T08:39:00;21.50;51.90
33271;DHT22;53180;51.344;6.152;2022-07-17T08:41:29;21.60;51.90
33271;DHT22;53180;51.344;6.152;2022-07-17T08:44:05;21.70;52.10
33271;DHT22;53180;51.344;6.152;2022-07-17T08:46:36;21.90;52.20
33271;DHT22;53180;51.344;6.152;2022-07-17T08:49:06;22.10;51.60
33271;DHT22;53180;51.344;6.152;2022-07-17T08:51:35;22.20;49.60
33271;DHT22;53180;51.344;6.152;2022-07-17T08:54:11;22.00;50.30
33271;DHT22;53180;51.344;6.152;2022-07-17T08:56:40;22.10;50.10
33271;DHT22;53180;51.344;6.152;2022-07-17T08:59:10;22.00;49.30
33271;DHT22;53180;51.344;6.152;2022-07-17T09:01:38;21.90;49.80
33271;DHT22;53180;51.344;6.152;2022-07-17T09:04:06;22.10;50.40
33271;DHT22;53180;51.344;6.152;2022-07-17T09:06:36;22.20;49.30
33271;DHT22;53180;51.344;6.152;2022-07-17T09:09:06;22.40;50.80
33271;DHT22;53180;51.344;6.152;2022-07-17T09:11:44;22.60;48.50
33271;DHT22;53180;51.344;6.152;2022-07-17T09:14:15;22.70;50.00
33271;DHT22;53180;51.344;6.152;2022-07-17T09:16:48;23.00;48.30
33271;DHT22;53180;51.344;6.152;2022-07-17T09:19:25;23.20;49.00
33271;DHT22;53180;51.344;6.152;2022-07-17T09:22:05;23.00;47.20
33271;DHT22;53180;51.344;6.152;2022-07-17T09:24:40;23.00;47.90
33271;DHT22;53180;51.344;6.152;2022-07-17T09:27:11;23.00;46.80
33271;DHT22;53180;51.344;6.152;2022-07-17T09:29:55;22.80;46.90
33271;DHT22;53180;51.344;6.152;2022-07-17T09:32:27;23.00;48.60
33271;DHT22;53180;51.344;6.152;2022-07-17T09:34:59;23.40;47.30
33271;DHT22;53180;51.344;6.152;2022-07-17T09:37:30;23.30;46.50
33271;DHT22;53180;51.344;6.152;2022-07-17T09:39:58;23.40;45.70
33271;DHT22;53180;51.344;6.152;2022-07-17T09:42:30;23.50;46.00
33271;DHT22;53180;51.344;6.152;2022-07-17T09:45:03;23.60;46.10
33271;DHT22;53180;51.344;6.152;2022-07-17T09:47:34;23.80;45.00
33271;DHT22;53180;51.344;6.152;2022-07-17T09:50:04;24.00;44.70
33271;DHT22;53180;51.344;6.152;2022-07-17T09:52:35;24.00;43.40
33271;DHT22;53180;51.344;6.152;2022-07-17T09:55:05;24.00;44.10
33271;DHT22;53180;51.344;6.152;2022-07-17T09:57:54;23.80;44.10
33271;DHT22;53180;51.344;6.152;2022-07-17T10:00:25;23.70;45.20
33271;DHT22;53180;51.344;6.152;2022-07-17T10:02:54;23.80;44.80
33271;DHT22;53180;51.344;6.152;2022-07-17T10:05:23;23.90;45.50
33271;DHT22;53180;51.344;6.152;2022-07-17T10:07:51;24.10;43.60
33271;DHT22;53180;51.344;6.152;2022-07-17T10:10:20;24.30;43.80
33271;DHT22;53180;51.344;6.152;2022-07-17T10:12:49;24.50;41.50
33271;DHT22;53180;51.344;6.152;2022-07-17T10:15:18;24.50;41.70
33271;DHT22;53180;51.344;6.152;2022-07-17T10:18:04;24.80;42.00
33271;DHT22;53180;51.344;6.152;2022-07-17T10:20:33;25.10;42.00
33271;DHT22;53180;51.344;6.152;2022-07-17T10:23:11;24.80;41.80
33271;DHT22;53180;51.344;6.152;2022-07-17T10:25:40;24.70;43.10
33271;DHT22;53180;51.344;6.152;2022-07-17T10:28:09;24.90;44.60
33271;DHT22;53180;51.344;6.152;2022-07-17T10:30:42;25.30;43.70
33271;DHT22;53180;51.344;6.152;2022-07-17T10:33:16;25.30;42.80
33271;DHT22;53180;51.344;6.152;2022-07-17T10:35:46;25.30;43.70
33271;DHT22;53180;51.344;6.152;2022-07-17T10:38:16;25.40;42.00
33271;DHT22;53180;51.344;6.152;2022-07-17T10:40:47;25.70;41.50
33271;DHT22;53180;51.344;6.152;2022-07-17T10:43:16;26.00;41.20
33271;DHT22;53180;51.344;6.152;2022-07-17T10:45:46;26.00;40.80
33271;DHT22;53180;51.344;6.152;2022-07-17T10:48:16;25.90;39.30
33271;DHT22;53180;51.344;6.152;2022-07-17T10:50:48;26.00;39.40
33271;DHT22;53180;51.344;6.152;2022-07-17T10:53:21;25.80;40.00
33271;DHT22;53180;51.344;6.152;2022-07-17T10:55:53;26.10;39.20
33271;DHT22;53180;51.344;6.152;2022-07-17T10:58:25;26.10;38.50
33271;DHT22;53180;51.344;6.152;2022-07-17T11:01:01;25.90;38.80
33271;DHT22;53180;51.344;6.152;2022-07-17T11:03:35;25.90;38.40
33271;DHT22;53180;51.344;6.152;2022-07-17T11:06:15;26.00;39.30
33271;DHT22;53180;51.344;6.152;2022-07-17T11:08:47;26.40;36.90
33271;DHT22;53180;51.344;6.152;2022-07-17T11:11:19;26.50;37.70
33271;DHT22;53180;51.344;6.152;2022-07-17T11:14:08;26.70;36.80
33271;DHT22;53180;51.344;6.152;2022-07-17T11:16:44;26.80;35.50
33271;DHT22;53180;51.344;6.152;2022-07-17T11:19:21;26.60;35.00
33271;DHT22;53180;51.344;6.152;2022-07-17T11:21:50;26.60;37.00
33271;DHT22;53180;51.344;6.152;2022-07-17T11:24:19;26.80;36.60
33271;DHT22;53180;51.344;6.152;2022-07-17T11:26:49;27.00;36.30
33271;DHT22;53180;51.344;6.152;2022-07-17T11:29:18;27.20;35.20
33271;DHT22;53180;51.344;6.152;2022-07-17T11:31:54;27.20;34.80
33271;DHT22;53180;51.344;6.152;2022-07-17T11:34:25;26.60;34.90
33271;DHT22;53180;51.344;6.152;2022-07-17T11:37:00;26.30;35.90
33271;DHT22;53180;51.344;6.152;2022-07-17T11:39:38;26.30;36.30
33271;DHT22;53180;51.344;6.152;2022-07-17T11:42:08;26.30;36.50
33271;DHT22;53180;51.344;6.152;2022-07-17T11:44:38;26.20;36.00
33271;DHT22;53180;51.344;6.152;2022-07-17T11:47:09;26.40;35.90
33271;DHT22;53180;51.344;6.152;2022-07-17T11:49:39;26.50;35.70
33271;DHT22;53180;51.344;6.152;2022-07-17T11:52:10;26.40;37.20
33271;DHT22;53180;51.344;6.152;2022-07-17T11:54:48;26.50;37.20
33271;DHT22;53180;51.344;6.152;2022-07-17T11:57:18;26.50;36.70
33271;DHT22;53180;51.344;6.152;2022-07-17T11:59:48;26.70;35.50
33271;DHT22;53180;51.344;6.152;2022-07-17T12:02:20;26.60;35.20
33271;DHT22;53180;51.344;6.152;2022-07-17T12:04:51;26.60;35.90
33271;DHT22;53180;51.344;6.152;2022-07-17T12:07:21;26.70;35.00
33271;DHT22;53180;51.344;6.152;2022-07-17T12:09:53;26.70;35.40
33271;DHT22;53180;51.344;6.152;2022-07-17T12:12:23;26.80;35.00
33271;DHT22;53180;51.344;6.152;2022-07-17T12:14:53;26.90;35.10
33271;DHT22;53180;51.344;6.152;2022-07-17T12:17:36;27.00;35.80
33271;DHT22;53180;51.344;6.152;2022-07-17T12:20:07;27.00;35.50
33271;DHT22;53180;51.344;6.152;2022-07-17T12:22:43;26.80;35.60
33271;DHT22;53180;51.344;6.152;2022-07-17T12:25:23;26.70;35.80
33271;DHT22;53180;51.344;6.152;2022-07-17T12:27:51;26.80;36.00
33271;DHT22;53180;51.344;6.152;2022-07-17T12:30:20;27.00;37.00
33271;DHT22;53180;51.344;6.152;2022-07-17T12:32:51;27.30;36.80
33271;DHT22;53180;51.344;6.152;2022-07-17T12:35:19;27.50;35.70
33271;DHT22;53180;51.344;6.152;2022-07-17T12:37:50;27.50;35.60
33271;DHT22;53180;51.344;6.152;2022-07-17T12:40:18;27.70;35.60
33271;DHT22;53180;51.344;6.152;2022-07-17T12:42:46;27.60;34.60
33271;DHT22;53180;51.344;6.152;2022-07-17T12:45:15;27.60;35.20
33271;DHT22;53180;51.344;6.152;2022-07-17T12:47:43;27.80;33.20
33271;DHT22;53180;51.344;6.152;2022-07-17T12:50:13;27.80;33.70
33271;DHT22;53180;51.344;6.152;2022-07-17T12:52:41;27.90;33.90
33271;DHT22;53180;51.344;6.152;2022-07-17T12:55:11;27.90;31.10
33271;DHT22;53180;51.344;6.152;2022-07-17T12:57:41;27.80;29.20
33271;DHT22;53180;51.344;6.152;2022-07-17T13:00:11;27.40;30.20
33271;DHT22;53180;51.344;6.152;2022-07-17T13:02:40;27.40;30.80
33271;DHT22;53180;51.344;6.152;2022-07-17T13:05:29;27.30;30.20
33271;DHT22;53180;51.344;6.152;2022-07-17T13:07:57;27.60;30.10
33271;DHT22;53180;51.344;6.152;2022-07-17T13:10:25;27.70;30.20
33271;DHT22;53180;51.344;6.152;2022-07-17T13:12:54;27.70;30.00
33271;DHT22;53180;51.344;6.152;2022-07-17T13:15:22;27.80;29.70
33271;DHT22;53180;51.344;6.152;2022-07-17T13:17:54;27.80;30.50
33271;DHT22;53180;51.344;6.152;2022-07-17T13:20:22;27.80;31.60
33271;DHT22;53180;51.344;6.152;2022-07-17T13:22:52;27.90;28.50
33271;DHT22;53180;51.344;6.152;2022-07-17T13:25:20;27.80;30.50
33271;DHT22;53180;51.344;6.152;2022-07-17T13:27:49;27.90;31.30
33271;DHT22;53180;51.344;6.152;2022-07-17T13:30:17;28.30;29.40
33271;DHT22;53180;51.344;6.152;2022-07-17T13:32:46;28.30;31.80
33271;DHT22;53180;51.344;6.152;2022-07-17T13:35:14;28.30;30.60
33271;DHT22;53180;51.344;6.152;2022-07-17T13:37:44;28.30;32.00
33271;DHT22;53180;51.344;6.152;2022-07-17T13:40:14;28.40;31.90
33271;DHT22;53180;51.344;6.152;2022-07-17T13:42:42;28.40;32.60
33271;DHT22;53180;51.344;6.152;2022-07-17T13:45:12;28.60;32.00
33271;DHT22;53180;51.344;6.152;2022-07-17T13:47:41;28.60;31.60
33271;DHT22;53180;51.344;6.152;2022-07-17T13:50:09;28.60;31.30
33271;DHT22;53180;51.344;6.152;2022-07-17T13:52:40;28.40;32.30
33271;DHT22;53180;51.344;6.152;2022-07-17T13:55:09;28.40;32.80
33271;DHT22;53180;51.344;6.152;2022-07-17T13:57:59;28.50;31.70
33271;DHT22;53180;51.344;6.152;2022-07-17T14:00:27;28.30;31.80
33271;DHT22;53180;51.344;6.152;2022-07-17T14:02:55;28.30;32.10
33271;DHT22;53180;51.344;6.152;2022-07-17T14:05:24;28.30;32.60
33271;DHT22;53180;51.344;6.152;2022-07-17T14:07:53;28.20;32.00
33271;DHT22;53180;51.344;6.152;2022-07-17T14:10:22;28.20;31.40
33271;DHT22;53180;51.344;6.152;2022-07-17T14:12:50;28.20;31.90
33271;DHT22;53180;51.344;6.152;2022-07-17T14:15:20;28.10;32.10
33271;DHT22;53180;51.344;6.152;2022-07-17T14:17:49;28.00;32.30
33271;DHT22;53180;51.344;6.152;2022-07-17T14:20:17;28.00;32.30
33271;DHT22;53180;51.344;6.152;2022-07-17T14:22:45;28.00;32.80
33271;DHT22;53180;51.344;6.152;2022-07-17T14:25:15;28.10;32.60
33271;DHT22;53180;51.344;6.152;2022-07-17T14:27:43;28.00;30.80
33271;DHT22;53180;51.344;6.152;2022-07-17T14:30:12;27.90;31.40
33271;DHT22;53180;51.344;6.152;2022-07-17T14:32:41;27.90;32.10
33271;DHT22;53180;51.344;6.152;2022-07-17T14:35:10;27.80;31.50
33271;DHT22;53180;51.344;6.152;2022-07-17T14:37:38;27.60;31.30
33271;DHT22;53180;51.344;6.152;2022-07-17T14:40:10;27.60;31.10
33271;DHT22;53180;51.344;6.152;2022-07-17T14:42:39;27.70;30.80
33271;DHT22;53180;51.344;6.152;2022-07-17T14:45:09;27.70;31.00
33271;DHT22;53180;51.344;6.152;2022-07-17T14:47:39;27.60;29.70
33271;DHT22;53180;51.344;6.152;2022-07-17T14:50:09;27.50;30.00
33271;DHT22;53180;51.344;6.152;2022-07-17T14:52:38;27.40;30.10
33271;DHT22;53180;51.344;6.152;2022-07-17T14:55:07;27.30;30.10
33271;DHT22;53180;51.344;6.152;2022-07-17T14:57:37;27.40;31.20
33271;DHT22;53180;51.344;6.152;2022-07-17T15:00:06;27.40;30.20
33271;DHT22;53180;51.344;6.152;2022-07-17T15:02:35;27.50;28.20
33271;DHT22;53180;51.344;6.152;2022-07-17T15:05:04;27.30;28.90
33271;DHT22;53180;51.344;6.152;2022-07-17T15:07:35;27.30;29.90
33271;DHT22;53180;51.344;6.152;2022-07-17T15:10:04;27.30;29.70
33271;DHT22;53180;51.344;6.152;2022-07-17T15:12:33;27.30;29.10
33271;DHT22;53180;51.344;6.152;2022-07-17T15:15:02;27.30;29.30
33271;DHT22;53180;51.344;6.152;2022-07-17T15:17:30;27.20;30.50
33271;DHT22;53180;51.344;6.152;2022-07-17T15:19:59;27.30;30.80
33271;DHT22;53180;51.344;6.152;2022-07-17T15:22:27;27.30;31.20
33271;DHT22;53180;51.344;6.152;2022-07-17T15:24:58;27.30;30.70
33271;DHT22;53180;51.344;6.152;2022-07-17T15:27:26;27.40;31.80
33271;DHT22;53180;51.344;6.152;2022-07-17T15:29:55;27.30;31.40
33271;DHT22;53180;51.344;6.152;2022-07-17T15:32:23;27.40;31.30
33271;DHT22;53180;51.344;6.152;2022-07-17T15:34:52;27.30;30.90
33271;DHT22;53180;51.344;6.152;2022-07-17T15:37:20;27.30;29.90
33271;DHT22;53180;51.344;6.152;2022-07-17T15:39:50;27.30;30.30
33271;DHT22;53180;51.344;6.152;2022-07-17T15:42:20;27.20;29.80
33271;DHT22;53180;51.344;6.152;2022-07-17T15:44:48;27.10;31.40
33271;DHT22;53180;51.344;6.152;2022-07-17T15:47:25;27.30;30.50